sensor_id;sensor_type;location;lat;lon;timestamp;P1;durP1;ratioP1;P2;durP2;ratioP2
6356;SDS011;3211;53.452;-2.264;2023-04-25T00:01:05;9.20;;;2.90;;
6356;SDS011;3211;53.452;-2.264;2023-04-25T00:03:48;7.73;;;3.30;;
6356;SDS011;3211;53.452;-2.264;2023-04-25T00:06:31;11.70;;;2.87;;
6356;SDS011;3211;53.452;-2.264;2023-04-25T00:09:13;4.50;;;2.80;;
6356;SDS011;3211;53.452;-2.264;2023-04-25T00:11:55;10.07;;;3.00;;
6356;SDS011;3211;53.452;-2.264;2023-04-25T00:14:37;13.07;;;3.60;;
6356;SDS011;3211;53.452;-2.264;2023-04-25T00:17:20;10.50;;;3.20;;
6356;SDS011;3211;53.452;-2.264;2023-04-25T00:20:05;9.73;;;3.57;;
6356;SDS011;3211;53.452;-2.264;2023-04-25T00:22:49;8.60;;;2.90;;
6356;SDS011;3211;53.452;-2.264;2023-04-25T00:25:32;11.10;;;3.00;;
6356;SDS011;3211;53.452;-2.264;2023-04-25T00:28:14;12.13;;;3.80;;
6356;SDS011;3211;53.452;-2.264;2023-04-25T00:30:57;14.27;;;2.70;;
6356;SDS011;3211;53.452;-2.264;2023-04-25T00:33:40;14.37;;;2.87;;
6356;SDS011;3211;53.452;-2.264;2023-04-25T00:36:22;8.73;;;2.90;;
6356;SDS011;3211;53.452;-2.264;2023-04-25T00:39:04;8.53;;;3.00;;
6356;SDS011;3211;53.452;-2.264;2023-04-25T00:41:46;11.33;;;4.00;;
6356;SDS011;3211;53.452;-2.264;2023-04-25T00:44:29;7.73;;;3.20;;
6356;SDS011;3211;53.452;-2.264;2023-04-25T00:47:12;7.13;;;2.80;;
6356;SDS011;3211;53.452;-2.264;2023-04-25T00:49:55;5.40;;;2.80;;
6356;SDS011;3211;53.452;-2.264;2023-04-25T00:52:37;5.00;;;2.87;;
6356;SDS011;3211;53.452;-2.264;2023-04-25T00:55:21;7.30;;;2.87;;
6356;SDS011;3211;53.452;-2.264;2023-04-25T00:58:03;12.73;;;2.90;;
6356;SDS011;3211;53.452;-2.264;2023-04-25T01:00:46;8.00;;;2.90;;
6356;SDS011;3211;53.452;-2.264;2023-04-25T01:03:28;11.17;;;3.00;;
6356;SDS011;3211;53.452;-2.264;2023-04-25T01:06:14;11.97;;;3.03;;
6356;SDS011;3211;53.452;-2.264;2023-04-25T01:08:57;12.03;;;3.37;;
6356;SDS011;3211;53.452;-2.264;2023-04-25T01:11:40;6.57;;;2.70;;
6356;SDS011;3211;53.452;-2.264;2023-04-25T01:14:22;5.17;;;2.33;;
6356;SDS011;3211;53.452;-2.264;2023-04-25T01:17:04;9.30;;;2.77;;
6356;SDS011;3211;53.452;-2.264;2023-04-25T01:19:47;8.20;;;3.37;;
6356;SDS011;3211;53.452;-2.264;2023-04-25T01:22:32;5.00;;;2.73;;
6356;SDS011;3211;53.452;-2.264;2023-04-25T01:25:14;3.53;;;2.10;;
6356;SDS011;3211;53.452;-2.264;2023-04-25T01:27:57;7.43;;;2.50;;
6356;SDS011;3211;53.452;-2.264;2023-04-25T01:30:40;7.63;;;2.43;;
6356;SDS011;3211;53.452;-2.264;2023-04-25T01:33:22;4.07;;;2.40;;
6356;SDS011;3211;53.452;-2.264;2023-04-25T01:36:05;7.00;;;2.83;;
6356;SDS011;3211;53.452;-2.264;2023-04-25T01:38:48;6.13;;;2.63;;
6356;SDS011;3211;53.452;-2.264;2023-04-25T01:41:30;8.10;;;2.93;;
6356;SDS011;3211;53.452;-2.264;2023-04-25T01:44:13;9.33;;;2.60;;
6356;SDS011;3211;53.452;-2.264;2023-04-25T01:46:55;10.53;;;3.60;;
6356;SDS011;3211;53.452;-2.264;2023-04-25T01:49:37;6.60;;;2.37;;
6356;SDS011;3211;53.452;-2.264;2023-04-25T01:52:19;5.80;;;2.93;;
6356;SDS011;3211;53.452;-2.264;2023-04-25T01:55:03;9.70;;;3.53;;
6356;SDS011;3211;53.452;-2.264;2023-04-25T01:57:45;10.23;;;3.10;;
6356;SDS011;3211;53.452;-2.264;2023-04-25T02:00:27;3.83;;;2.40;;
6356;SDS011;3211;53.452;-2.264;2023-04-25T02:03:09;9.07;;;2.90;;
6356;SDS011;3211;53.452;-2.264;2023-04-25T02:05:51;9.33;;;2.93;;
6356;SDS011;3211;53.452;-2.264;2023-04-25T02:08:33;6.10;;;2.60;;
6356;SDS011;3211;53.452;-2.264;2023-04-25T02:11:18;10.07;;;2.90;;
6356;SDS011;3211;53.452;-2.264;2023-04-25T02:14:00;6.50;;;2.90;;
6356;SDS011;3211;53.452;-2.264;2023-04-25T02:16:42;15.70;;;2.90;;
6356;SDS011;3211;53.452;-2.264;2023-04-25T02:19:24;6.77;;;3.10;;
6356;SDS011;3211;53.452;-2.264;2023-04-25T02:22:06;6.67;;;2.63;;
6356;SDS011;3211;53.452;-2.264;2023-04-25T02:24:48;7.27;;;3.10;;
6356;SDS011;3211;53.452;-2.264;2023-04-25T02:27:32;4.33;;;2.47;;
6356;SDS011;3211;53.452;-2.264;2023-04-25T02:30:14;9.37;;;2.90;;
6356;SDS011;3211;53.452;-2.264;2023-04-25T02:32:56;5.37;;;2.63;;
6356;SDS011;3211;53.452;-2.264;2023-04-25T02:35:38;4.13;;;2.60;;
6356;SDS011;3211;53.452;-2.264;2023-04-25T02:38:20;10.10;;;3.03;;
6356;SDS011;3211;53.452;-2.264;2023-04-25T02:41:02;8.43;;;3.10;;
6356;SDS011;3211;53.452;-2.264;2023-04-25T02:43:45;9.83;;;2.93;;
6356;SDS011;3211;53.452;-2.264;2023-04-25T02:46:27;10.70;;;2.90;;
6356;SDS011;3211;53.452;-2.264;2023-04-25T02:49:09;6.30;;;3.40;;
6356;SDS011;3211;53.452;-2.264;2023-04-25T02:51:51;6.60;;;2.97;;
6356;SDS011;3211;53.452;-2.264;2023-04-25T02:54:33;7.80;;;3.40;;
6356;SDS011;3211;53.452;-2.264;2023-04-25T02:57:15;6.30;;;3.00;;
6356;SDS011;3211;53.452;-2.264;2023-04-25T02:59:58;6.50;;;3.07;;
6356;SDS011;3211;53.452;-2.264;2023-04-25T03:02:40;8.13;;;3.07;;
6356;SDS011;3211;53.452;-2.264;2023-04-25T03:05:22;6.30;;;3.33;;
6356;SDS011;3211;53.452;-2.264;2023-04-25T03:08:04;5.77;;;3.10;;
6356;SDS011;3211;53.452;-2.264;2023-04-25T03:10:46;8.50;;;3.50;;
6356;SDS011;3211;53.452;-2.264;2023-04-25T03:13:28;7.67;;;3.10;;
6356;SDS011;3211;53.452;-2.264;2023-04-25T03:16:11;6.80;;;3.13;;
6356;SDS011;3211;53.452;-2.264;2023-04-25T03:18:53;8.73;;;3.47;;
6356;SDS011;3211;53.452;-2.264;2023-04-25T03:21:35;6.17;;;3.87;;
6356;SDS011;3211;53.452;-2.264;2023-04-25T03:24:17;5.20;;;3.70;;
6356;SDS011;3211;53.452;-2.264;2023-04-25T03:26:59;5.50;;;3.00;;
6356;SDS011;3211;53.452;-2.264;2023-04-25T03:29:41;13.73;;;3.67;;
6356;SDS011;3211;53.452;-2.264;2023-04-25T03:32:25;6.10;;;3.40;;
6356;SDS011;3211;53.452;-2.264;2023-04-25T03:35:07;5.40;;;4.10;;
6356;SDS011;3211;53.452;-2.264;2023-04-25T03:37:49;6.07;;;3.10;;
6356;SDS011;3211;53.452;-2.264;2023-04-25T03:40:31;5.93;;;3.10;;
6356;SDS011;3211;53.452;-2.264;2023-04-25T03:43:13;13.73;;;4.07;;
6356;SDS011;3211;53.452;-2.264;2023-04-25T03:45:55;9.83;;;3.70;;
6356;SDS011;3211;53.452;-2.264;2023-04-25T03:48:38;11.93;;;2.93;;
6356;SDS011;3211;53.452;-2.264;2023-04-25T03:51:20;6.13;;;3.67;;
6356;SDS011;3211;53.452;-2.264;2023-04-25T03:54:03;8.17;;;3.10;;
6356;SDS011;3211;53.452;-2.264;2023-04-25T03:56:45;6.07;;;3.37;;
6356;SDS011;3211;53.452;-2.264;2023-04-25T03:59:26;6.00;;;3.30;;
6356;SDS011;3211;53.452;-2.264;2023-04-25T04:02:08;6.50;;;3.30;;
6356;SDS011;3211;53.452;-2.264;2023-04-25T04:04:52;8.40;;;3.20;;
6356;SDS011;3211;53.452;-2.264;2023-04-25T04:07:36;6.67;;;3.33;;
6356;SDS011;3211;53.452;-2.264;2023-04-25T04:10:20;7.83;;;3.33;;
6356;SDS011;3211;53.452;-2.264;2023-04-25T04:13:02;7.10;;;3.40;;
6356;SDS011;3211;53.452;-2.264;2023-04-25T04:15:44;7.17;;;3.40;;
6356;SDS011;3211;53.452;-2.264;2023-04-25T04:18:26;5.33;;;3.20;;
6356;SDS011;3211;53.452;-2.264;2023-04-25T04:21:09;9.90;;;3.77;;
6356;SDS011;3211;53.452;-2.264;2023-04-25T04:23:51;7.47;;;3.53;;
6356;SDS011;3211;53.452;-2.264;2023-04-25T04:26:34;8.73;;;3.43;;
6356;SDS011;3211;53.452;-2.264;2023-04-25T04:29:17;5.60;;;2.90;;
6356;SDS011;3211;53.452;-2.264;2023-04-25T04:32:01;7.70;;;3.50;;
6356;SDS011;3211;53.452;-2.264;2023-04-25T04:34:43;7.23;;;3.33;;
6356;SDS011;3211;53.452;-2.264;2023-04-25T04:37:28;5.80;;;3.40;;
6356;SDS011;3211;53.452;-2.264;2023-04-25T04:40:10;9.73;;;4.03;;
6356;SDS011;3211;53.452;-2.264;2023-04-25T04:42:55;7.43;;;3.53;;
6356;SDS011;3211;53.452;-2.264;2023-04-25T04:45:37;8.70;;;3.90;;
6356;SDS011;3211;53.452;-2.264;2023-04-25T04:48:20;6.83;;;3.37;;
6356;SDS011;3211;53.452;-2.264;2023-04-25T04:51:02;6.37;;;3.57;;
6356;SDS011;3211;53.452;-2.264;2023-04-25T04:53:45;7.07;;;3.50;;
6356;SDS011;3211;53.452;-2.264;2023-04-25T04:56:28;17.63;;;3.97;;
6356;SDS011;3211;53.452;-2.264;2023-04-25T04:59:11;9.83;;;4.03;;
6356;SDS011;3211;53.452;-2.264;2023-04-25T05:01:52;8.33;;;3.93;;
6356;SDS011;3211;53.452;-2.264;2023-04-25T05:04:34;6.00;;;3.43;;
6356;SDS011;3211;53.452;-2.264;2023-04-25T05:07:16;5.50;;;3.23;;
6356;SDS011;3211;53.452;-2.264;2023-04-25T05:10:00;4.43;;;2.97;;
6356;SDS011;3211;53.452;-2.264;2023-04-25T05:12:42;14.50;;;4.17;;
6356;SDS011;3211;53.452;-2.264;2023-04-25T05:15:23;6.40;;;3.37;;
6356;SDS011;3211;53.452;-2.264;2023-04-25T05:18:05;8.13;;;4.20;;
6356;SDS011;3211;53.452;-2.264;2023-04-25T05:20:47;10.00;;;4.07;;
6356;SDS011;3211;53.452;-2.264;2023-04-25T05:23:30;7.83;;;3.63;;
6356;SDS011;3211;53.452;-2.264;2023-04-25T05:26:13;7.47;;;3.90;;
6356;SDS011;3211;53.452;-2.264;2023-04-25T05:28:55;8.00;;;3.40;;
6356;SDS011;3211;53.452;-2.264;2023-04-25T05:31:37;9.43;;;4.23;;
6356;SDS011;3211;53.452;-2.264;2023-04-25T05:34:19;7.00;;;3.67;;
6356;SDS011;3211;53.452;-2.264;2023-04-25T05:37:01;14.30;;;3.60;;
6356;SDS011;3211;53.452;-2.264;2023-04-25T05:39:43;7.70;;;3.27;;
6356;SDS011;3211;53.452;-2.264;2023-04-25T05:42:27;7.90;;;3.80;;
6356;SDS011;3211;53.452;-2.264;2023-04-25T05:45:09;7.43;;;3.77;;
6356;SDS011;3211;53.452;-2.264;2023-04-25T05:47:51;7.67;;;3.40;;
6356;SDS011;3211;53.452;-2.264;2023-04-25T05:50:33;9.43;;;3.83;;
6356;SDS011;3211;53.452;-2.264;2023-04-25T05:53:15;7.47;;;3.47;;
6356;SDS011;3211;53.452;-2.264;2023-04-25T05:55:57;7.20;;;3.37;;
6356;SDS011;3211;53.452;-2.264;2023-04-25T05:58:40;9.70;;;3.40;;
6356;SDS011;3211;53.452;-2.264;2023-04-25T06:01:22;12.60;;;3.43;;
6356;SDS011;3211;53.452;-2.264;2023-04-25T06:04:04;12.40;;;4.17;;
6356;SDS011;3211;53.452;-2.264;2023-04-25T06:06:46;6.80;;;3.30;;
6356;SDS011;3211;53.452;-2.264;2023-04-25T06:09:28;15.80;;;4.23;;
6356;SDS011;3211;53.452;-2.264;2023-04-25T06:12:10;12.00;;;4.00;;
6356;SDS011;3211;53.452;-2.264;2023-04-25T06:14:53;12.50;;;4.00;;
6356;SDS011;3211;53.452;-2.264;2023-04-25T06:17:35;4.67;;;3.93;;
6356;SDS011;3211;53.452;-2.264;2023-04-25T06:20:17;12.77;;;3.87;;
6356;SDS011;3211;53.452;-2.264;2023-04-25T06:23:03;7.30;;;4.00;;
6356;SDS011;3211;53.452;-2.264;2023-04-25T06:25:44;7.47;;;3.87;;
6356;SDS011;3211;53.452;-2.264;2023-04-25T06:28:26;13.13;;;4.03;;
6356;SDS011;3211;53.452;-2.264;2023-04-25T06:31:10;10.77;;;3.60;;
6356;SDS011;3211;53.452;-2.264;2023-04-25T06:33:52;7.17;;;3.63;;
6356;SDS011;3211;53.452;-2.264;2023-04-25T06:36:34;9.40;;;3.80;;
6356;SDS011;3211;53.452;-2.264;2023-04-25T06:39:16;9.17;;;4.00;;
6356;SDS011;3211;53.452;-2.264;2023-04-25T06:42:00;5.53;;;3.33;;
6356;SDS011;3211;53.452;-2.264;2023-04-25T06:44:42;6.67;;;4.03;;
6356;SDS011;3211;53.452;-2.264;2023-04-25T06:47:25;7.07;;;3.17;;
6356;SDS011;3211;53.452;-2.264;2023-04-25T06:50:07;11.03;;;4.43;;
6356;SDS011;3211;53.452;-2.264;2023-04-25T06:52:50;9.10;;;3.70;;
6356;SDS011;3211;53.452;-2.264;2023-04-25T06:55:32;8.73;;;3.47;;
6356;SDS011;3211;53.452;-2.264;2023-04-25T06:58:14;7.30;;;3.40;;
6356;SDS011;3211;53.452;-2.264;2023-04-25T07:00:56;12.00;;;3.30;;
6356;SDS011;3211;53.452;-2.264;2023-04-25T07:03:40;7.20;;;4.03;;
6356;SDS011;3211;53.452;-2.264;2023-04-25T07:06:22;6.63;;;4.10;;
6356;SDS011;3211;53.452;-2.264;2023-04-25T07:09:06;9.33;;;3.67;;
6356;SDS011;3211;53.452;-2.264;2023-04-25T07:11:48;3.80;;;2.80;;
6356;SDS011;3211;53.452;-2.264;2023-04-25T07:14:30;7.00;;;3.83;;
6356;SDS011;3211;53.452;-2.264;2023-04-25T07:17:12;7.00;;;3.17;;
6356;SDS011;3211;53.452;-2.264;2023-04-25T07:19:56;7.70;;;3.10;;
6356;SDS011;3211;53.452;-2.264;2023-04-25T07:22:38;5.40;;;3.07;;
6356;SDS011;3211;53.452;-2.264;2023-04-25T07:25:20;10.40;;;3.87;;
6356;SDS011;3211;53.452;-2.264;2023-04-25T07:28:02;7.67;;;3.23;;
6356;SDS011;3211;53.452;-2.264;2023-04-25T07:30:45;5.63;;;2.30;;
6356;SDS011;3211;53.452;-2.264;2023-04-25T07:33:27;9.13;;;3.07;;
6356;SDS011;3211;53.452;-2.264;2023-04-25T07:36:10;6.33;;;2.93;;
6356;SDS011;3211;53.452;-2.264;2023-04-25T07:38:52;7.63;;;3.53;;
6356;SDS011;3211;53.452;-2.264;2023-04-25T07:41:34;9.70;;;2.87;;
6356;SDS011;3211;53.452;-2.264;2023-04-25T07:44:16;5.53;;;2.60;;
6356;SDS011;3211;53.452;-2.264;2023-04-25T07:46:58;4.87;;;2.13;;
6356;SDS011;3211;53.452;-2.264;2023-04-25T07:49:40;6.63;;;2.27;;
6356;SDS011;3211;53.452;-2.264;2023-04-25T07:52:23;12.70;;;2.60;;
6356;SDS011;3211;53.452;-2.264;2023-04-25T07:55:05;4.47;;;2.30;;
6356;SDS011;3211;53.452;-2.264;2023-04-25T07:57:48;4.00;;;1.80;;
6356;SDS011;3211;53.452;-2.264;2023-04-25T08:00:30;4.73;;;2.30;;
6356;SDS011;3211;53.452;-2.264;2023-04-25T08:03:12;5.70;;;2.57;;
6356;SDS011;3211;53.452;-2.264;2023-04-25T08:05:54;3.90;;;2.20;;
6356;SDS011;3211;53.452;-2.264;2023-04-25T08:08:37;3.70;;;2.00;;
6356;SDS011;3211;53.452;-2.264;2023-04-25T08:11:19;4.33;;;1.80;;
6356;SDS011;3211;53.452;-2.264;2023-04-25T08:14:01;7.40;;;2.40;;
6356;SDS011;3211;53.452;-2.264;2023-04-25T08:16:43;5.53;;;2.67;;
6356;SDS011;3211;53.452;-2.264;2023-04-25T08:19:25;3.90;;;1.87;;
6356;SDS011;3211;53.452;-2.264;2023-04-25T08:22:07;3.40;;;2.10;;
6356;SDS011;3211;53.452;-2.264;2023-04-25T08:24:51;4.03;;;2.17;;
6356;SDS011;3211;53.452;-2.264;2023-04-25T08:27:33;5.83;;;2.93;;
6356;SDS011;3211;53.452;-2.264;2023-04-25T08:30:15;6.53;;;2.20;;
6356;SDS011;3211;53.452;-2.264;2023-04-25T08:32:57;4.97;;;2.97;;
6356;SDS011;3211;53.452;-2.264;2023-04-25T08:35:38;4.00;;;1.90;;
6356;SDS011;3211;53.452;-2.264;2023-04-25T08:38:20;3.50;;;2.00;;
6356;SDS011;3211;53.452;-2.264;2023-04-25T08:41:04;5.77;;;2.23;;
6356;SDS011;3211;53.452;-2.264;2023-04-25T08:43:47;5.33;;;1.90;;
6356;SDS011;3211;53.452;-2.264;2023-04-25T08:46:30;3.63;;;1.80;;
6356;SDS011;3211;53.452;-2.264;2023-04-25T08:49:12;3.00;;;1.63;;
6356;SDS011;3211;53.452;-2.264;2023-04-25T08:51:54;3.40;;;2.00;;
6356;SDS011;3211;53.452;-2.264;2023-04-25T08:54:42;2.23;;;2.00;;
6356;SDS011;3211;53.452;-2.264;2023-04-25T08:57:30;4.23;;;2.47;;
6356;SDS011;3211;53.452;-2.264;2023-04-25T09:00:13;4.40;;;2.43;;
6356;SDS011;3211;53.452;-2.264;2023-04-25T09:02:56;4.27;;;2.30;;
6356;SDS011;3211;53.452;-2.264;2023-04-25T09:05:39;5.43;;;2.13;;
6356;SDS011;3211;53.452;-2.264;2023-04-25T09:08:21;6.10;;;2.37;;
6356;SDS011;3211;53.452;-2.264;2023-04-25T09:11:03;5.77;;;2.30;;
6356;SDS011;3211;53.452;-2.264;2023-04-25T09:13:47;3.57;;;2.17;;
6356;SDS011;3211;53.452;-2.264;2023-04-25T09:16:28;7.27;;;2.10;;
6356;SDS011;3211;53.452;-2.264;2023-04-25T09:19:15;6.30;;;2.50;;
6356;SDS011;3211;53.452;-2.264;2023-04-25T09:22:03;4.43;;;2.30;;
6356;SDS011;3211;53.452;-2.264;2023-04-25T09:24:46;5.50;;;2.13;;
6356;SDS011;3211;53.452;-2.264;2023-04-25T09:27:30;2.97;;;2.30;;
6356;SDS011;3211;53.452;-2.264;2023-04-25T09:30:13;3.70;;;2.30;;
6356;SDS011;3211;53.452;-2.264;2023-04-25T09:32:58;2.70;;;2.03;;
6356;SDS011;3211;53.452;-2.264;2023-04-25T09:35:45;3.87;;;2.37;;
6356;SDS011;3211;53.452;-2.264;2023-04-25T09:38:34;4.67;;;2.13;;
6356;SDS011;3211;53.452;-2.264;2023-04-25T09:41:22;2.53;;;2.27;;
6356;SDS011;3211;53.452;-2.264;2023-04-25T09:44:05;4.63;;;1.77;;
6356;SDS011;3211;53.452;-2.264;2023-04-25T09:46:50;3.03;;;1.40;;
6356;SDS011;3211;53.452;-2.264;2023-04-25T09:49:33;2.80;;;1.87;;
6356;SDS011;3211;53.452;-2.264;2023-04-25T09:52:16;3.67;;;2.10;;
6356;SDS011;3211;53.452;-2.264;2023-04-25T09:55:00;3.50;;;1.90;;
6356;SDS011;3211;53.452;-2.264;2023-04-25T09:57:42;7.70;;;3.60;;
6356;SDS011;3211;53.452;-2.264;2023-04-25T10:00:26;2.37;;;1.80;;
6356;SDS011;3211;53.452;-2.264;2023-04-25T10:03:10;3.17;;;1.70;;
6356;SDS011;3211;53.452;-2.264;2023-04-25T10:05:53;3.33;;;2.10;;
6356;SDS011;3211;53.452;-2.264;2023-04-25T10:08:36;1.70;;;1.60;;
6356;SDS011;3211;53.452;-2.264;2023-04-25T10:11:19;2.80;;;1.87;;
6356;SDS011;3211;53.452;-2.264;2023-04-25T10:14:03;6.80;;;2.00;;
6356;SDS011;3211;53.452;-2.264;2023-04-25T10:16:45;4.23;;;1.90;;
6356;SDS011;3211;53.452;-2.264;2023-04-25T10:19:30;4.67;;;1.77;;
6356;SDS011;3211;53.452;-2.264;2023-04-25T10:22:14;4.23;;;2.63;;
6356;SDS011;3211;53.452;-2.264;2023-04-25T10:25:01;3.80;;;1.80;;
6356;SDS011;3211;53.452;-2.264;2023-04-25T10:27:44;5.33;;;1.40;;
6356;SDS011;3211;53.452;-2.264;2023-04-25T10:30:26;4.50;;;2.43;;
6356;SDS011;3211;53.452;-2.264;2023-04-25T10:33:16;2.63;;;1.90;;
6356;SDS011;3211;53.452;-2.264;2023-04-25T10:36:00;5.23;;;1.80;;
6356;SDS011;3211;53.452;-2.264;2023-04-25T10:38:50;2.83;;;1.80;;
6356;SDS011;3211;53.452;-2.264;2023-04-25T10:41:46;3.20;;;2.03;;
6356;SDS011;3211;53.452;-2.264;2023-04-25T10:44:33;3.47;;;1.73;;
6356;SDS011;3211;53.452;-2.264;2023-04-25T10:47:17;6.47;;;1.77;;
6356;SDS011;3211;53.452;-2.264;2023-04-25T10:50:16;2.67;;;1.57;;
6356;SDS011;3211;53.452;-2.264;2023-04-25T10:53:03;2.40;;;1.80;;
6356;SDS011;3211;53.452;-2.264;2023-04-25T10:55:55;2.40;;;1.57;;
6356;SDS011;3211;53.452;-2.264;2023-04-25T10:58:41;2.90;;;1.60;;
6356;SDS011;3211;53.452;-2.264;2023-04-25T11:01:24;4.17;;;1.83;;
6356;SDS011;3211;53.452;-2.264;2023-04-25T11:04:06;2.53;;;1.70;;
6356;SDS011;3211;53.452;-2.264;2023-04-25T11:07:09;3.73;;;1.50;;
6356;SDS011;3211;53.452;-2.264;2023-04-25T11:10:02;2.43;;;1.70;;
6356;SDS011;3211;53.452;-2.264;2023-04-25T11:12:45;1.90;;;1.50;;
6356;SDS011;3211;53.452;-2.264;2023-04-25T11:15:27;3.40;;;1.80;;
6356;SDS011;3211;53.452;-2.264;2023-04-25T11:18:09;2.37;;;1.70;;
6356;SDS011;3211;53.452;-2.264;2023-04-25T11:20:51;3.40;;;1.70;;
6356;SDS011;3211;53.452;-2.264;2023-04-25T11:23:33;3.73;;;1.87;;
6356;SDS011;3211;53.452;-2.264;2023-04-25T11:26:18;2.83;;;1.60;;
6356;SDS011;3211;53.452;-2.264;2023-04-25T11:29:01;4.40;;;2.20;;
6356;SDS011;3211;53.452;-2.264;2023-04-25T11:31:43;2.43;;;1.83;;
6356;SDS011;3211;53.452;-2.264;2023-04-25T11:34:26;3.67;;;1.93;;
6356;SDS011;3211;53.452;-2.264;2023-04-25T11:37:10;4.70;;;1.80;;
6356;SDS011;3211;53.452;-2.264;2023-04-25T11:39:53;2.30;;;1.93;;
6356;SDS011;3211;53.452;-2.264;2023-04-25T11:42:37;2.43;;;1.80;;
6356;SDS011;3211;53.452;-2.264;2023-04-25T11:45:20;3.80;;;1.70;;
6356;SDS011;3211;53.452;-2.264;2023-04-25T11:48:04;4.60;;;2.13;;
6356;SDS011;3211;53.452;-2.264;2023-04-25T11:50:46;5.57;;;2.30;;
6356;SDS011;3211;53.452;-2.264;2023-04-25T11:53:28;4.67;;;1.90;;
6356;SDS011;3211;53.452;-2.264;2023-04-25T11:56:10;3.20;;;1.90;;
6356;SDS011;3211;53.452;-2.264;2023-04-25T11:58:57;3.73;;;1.97;;
6356;SDS011;3211;53.452;-2.264;2023-04-25T12:01:41;5.10;;;2.53;;
6356;SDS011;3211;53.452;-2.264;2023-04-25T12:04:30;4.03;;;2.10;;
6356;SDS011;3211;53.452;-2.264;2023-04-25T12:07:13;2.70;;;2.10;;
6356;SDS011;3211;53.452;-2.264;2023-04-25T12:09:55;3.43;;;1.80;;
6356;SDS011;3211;53.452;-2.264;2023-04-25T12:12:37;7.40;;;2.23;;
6356;SDS011;3211;53.452;-2.264;2023-04-25T12:15:24;6.70;;;2.00;;
6356;SDS011;3211;53.452;-2.264;2023-04-25T12:18:07;2.63;;;1.90;;
6356;SDS011;3211;53.452;-2.264;2023-04-25T12:20:48;1.97;;;1.60;;
6356;SDS011;3211;53.452;-2.264;2023-04-25T12:23:30;3.50;;;2.37;;
6356;SDS011;3211;53.452;-2.264;2023-04-25T12:26:12;6.20;;;2.30;;
6356;SDS011;3211;53.452;-2.264;2023-04-25T12:28:54;4.50;;;2.07;;
6356;SDS011;3211;53.452;-2.264;2023-04-25T12:31:37;2.70;;;1.93;;
6356;SDS011;3211;53.452;-2.264;2023-04-25T12:34:19;3.13;;;2.47;;
6356;SDS011;3211;53.452;-2.264;2023-04-25T12:37:02;4.60;;;2.10;;
6356;SDS011;3211;53.452;-2.264;2023-04-25T12:39:45;3.20;;;2.10;;
6356;SDS011;3211;53.452;-2.264;2023-04-25T12:42:27;4.13;;;2.30;;
6356;SDS011;3211;53.452;-2.264;2023-04-25T12:45:09;6.07;;;2.47;;
6356;SDS011;3211;53.452;-2.264;2023-04-25T12:47:52;4.73;;;2.10;;
6356;SDS011;3211;53.452;-2.264;2023-04-25T12:50:34;3.73;;;2.03;;
6356;SDS011;3211;53.452;-2.264;2023-04-25T12:53:16;3.63;;;2.37;;
6356;SDS011;3211;53.452;-2.264;2023-04-25T12:55:59;4.10;;;2.00;;
6356;SDS011;3211;53.452;-2.264;2023-04-25T12:58:41;2.73;;;2.10;;
6356;SDS011;3211;53.452;-2.264;2023-04-25T13:01:24;3.40;;;2.37;;
6356;SDS011;3211;53.452;-2.264;2023-04-25T13:04:07;2.87;;;2.10;;
6356;SDS011;3211;53.452;-2.264;2023-04-25T13:06:49;3.97;;;2.20;;
6356;SDS011;3211;53.452;-2.264;2023-04-25T13:09:31;3.43;;;1.90;;
6356;SDS011;3211;53.452;-2.264;2023-04-25T13:12:13;4.20;;;2.80;;
6356;SDS011;3211;53.452;-2.264;2023-04-25T13:14:55;3.40;;;2.10;;
6356;SDS011;3211;53.452;-2.264;2023-04-25T13:17:38;5.57;;;2.03;;
6356;SDS011;3211;53.452;-2.264;2023-04-25T13:20:21;6.20;;;2.50;;
6356;SDS011;3211;53.452;-2.264;2023-04-25T13:23:03;4.70;;;2.07;;
6356;SDS011;3211;53.452;-2.264;2023-04-25T13:25:46;3.73;;;2.27;;
6356;SDS011;3211;53.452;-2.264;2023-04-25T13:28:28;5.10;;;2.50;;
6356;SDS011;3211;53.452;-2.264;2023-04-25T13:31:10;6.70;;;2.20;;
6356;SDS011;3211;53.452;-2.264;2023-04-25T13:33:52;3.13;;;2.67;;
6356;SDS011;3211;53.452;-2.264;2023-04-25T13:36:35;5.30;;;1.90;;
6356;SDS011;3211;53.452;-2.264;2023-04-25T13:39:17;3.80;;;2.40;;
6356;SDS011;3211;53.452;-2.264;2023-04-25T13:41:59;2.20;;;1.93;;
6356;SDS011;3211;53.452;-2.264;2023-04-25T13:44:42;4.80;;;2.30;;
6356;SDS011;3211;53.452;-2.264;2023-04-25T13:47:24;2.90;;;2.70;;
6356;SDS011;3211;53.452;-2.264;2023-04-25T13:50:08;3.10;;;1.93;;
6356;SDS011;3211;53.452;-2.264;2023-04-25T13:52:51;6.80;;;2.70;;
6356;SDS011;3211;53.452;-2.264;2023-04-25T13:55:34;5.63;;;2.70;;
6356;SDS011;3211;53.452;-2.264;2023-04-25T13:58:16;3.03;;;2.30;;
6356;SDS011;3211;53.452;-2.264;2023-04-25T14:01:00;4.10;;;2.40;;
6356;SDS011;3211;53.452;-2.264;2023-04-25T14:03:43;6.67;;;2.60;;
6356;SDS011;3211;53.452;-2.264;2023-04-25T14:06:25;5.83;;;2.20;;
6356;SDS011;3211;53.452;-2.264;2023-04-25T14:09:09;6.37;;;2.83;;
6356;SDS011;3211;53.452;-2.264;2023-04-25T14:11:53;4.37;;;2.47;;
6356;SDS011;3211;53.452;-2.264;2023-04-25T14:14:36;2.83;;;2.50;;
6356;SDS011;3211;53.452;-2.264;2023-04-25T14:17:18;5.43;;;2.50;;
6356;SDS011;3211;53.452;-2.264;2023-04-25T14:20:00;3.70;;;2.50;;
6356;SDS011;3211;53.452;-2.264;2023-04-25T14:22:42;7.40;;;2.23;;
6356;SDS011;3211;53.452;-2.264;2023-04-25T14:25:25;4.20;;;2.33;;
6356;SDS011;3211;53.452;-2.264;2023-04-25T14:28:09;6.10;;;2.53;;
6356;SDS011;3211;53.452;-2.264;2023-04-25T14:30:51;2.80;;;2.50;;
6356;SDS011;3211;53.452;-2.264;2023-04-25T14:33:33;5.73;;;2.27;;
6356;SDS011;3211;53.452;-2.264;2023-04-25T14:36:15;4.97;;;2.53;;
6356;SDS011;3211;53.452;-2.264;2023-04-25T14:38:57;4.97;;;2.47;;
6356;SDS011;3211;53.452;-2.264;2023-04-25T14:41:41;3.80;;;2.93;;
6356;SDS011;3211;53.452;-2.264;2023-04-25T14:44:23;4.30;;;2.40;;
6356;SDS011;3211;53.452;-2.264;2023-04-25T14:47:05;3.50;;;2.40;;
6356;SDS011;3211;53.452;-2.264;2023-04-25T14:49:47;5.53;;;2.67;;
6356;SDS011;3211;53.452;-2.264;2023-04-25T14:52:34;7.57;;;3.13;;
6356;SDS011;3211;53.452;-2.264;2023-04-25T14:55:16;2.80;;;2.33;;
6356;SDS011;3211;53.452;-2.264;2023-04-25T14:57:59;6.33;;;2.50;;
6356;SDS011;3211;53.452;-2.264;2023-04-25T15:00:42;5.80;;;2.63;;
6356;SDS011;3211;53.452;-2.264;2023-04-25T15:03:24;3.33;;;2.63;;
6356;SDS011;3211;53.452;-2.264;2023-04-25T15:06:06;3.83;;;3.03;;
6356;SDS011;3211;53.452;-2.264;2023-04-25T15:08:48;5.13;;;3.13;;
6356;SDS011;3211;53.452;-2.264;2023-04-25T15:11:30;7.47;;;2.97;;
6356;SDS011;3211;53.452;-2.264;2023-04-25T15:14:14;3.37;;;2.30;;
6356;SDS011;3211;53.452;-2.264;2023-04-25T15:16:56;3.70;;;2.63;;
6356;SDS011;3211;53.452;-2.264;2023-04-25T15:19:38;4.80;;;2.97;;
6356;SDS011;3211;53.452;-2.264;2023-04-25T15:22:20;4.80;;;2.53;;
6356;SDS011;3211;53.452;-2.264;2023-04-25T15:25:02;6.13;;;2.77;;
6356;SDS011;3211;53.452;-2.264;2023-04-25T15:27:44;8.60;;;3.13;;
6356;SDS011;3211;53.452;-2.264;2023-04-25T15:30:29;4.60;;;2.73;;
6356;SDS011;3211;53.452;-2.264;2023-04-25T15:33:11;3.77;;;3.10;;
6356;SDS011;3211;53.452;-2.264;2023-04-25T15:35:54;6.97;;;3.80;;
6356;SDS011;3211;53.452;-2.264;2023-04-25T15:38:37;9.70;;;2.77;;
6356;SDS011;3211;53.452;-2.264;2023-04-25T15:41:19;3.13;;;2.60;;
6356;SDS011;3211;53.452;-2.264;2023-04-25T15:44:01;8.20;;;2.83;;
6356;SDS011;3211;53.452;-2.264;2023-04-25T15:46:44;7.60;;;3.30;;
6356;SDS011;3211;53.452;-2.264;2023-04-25T15:49:26;5.33;;;2.80;;
6356;SDS011;3211;53.452;-2.264;2023-04-25T15:52:08;3.90;;;2.53;;
6356;SDS011;3211;53.452;-2.264;2023-04-25T15:54:50;5.47;;;2.60;;
6356;SDS011;3211;53.452;-2.264;2023-04-25T15:57:32;4.77;;;2.80;;
6356;SDS011;3211;53.452;-2.264;2023-04-25T16:00:15;5.83;;;2.80;;
6356;SDS011;3211;53.452;-2.264;2023-04-25T16:02:59;6.73;;;2.90;;
6356;SDS011;3211;53.452;-2.264;2023-04-25T16:05:43;10.27;;;3.40;;
6356;SDS011;3211;53.452;-2.264;2023-04-25T16:08:25;5.43;;;2.97;;
6356;SDS011;3211;53.452;-2.264;2023-04-25T16:11:08;6.47;;;2.90;;
6356;SDS011;3211;53.452;-2.264;2023-04-25T16:13:53;7.30;;;2.93;;
6356;SDS011;3211;53.452;-2.264;2023-04-25T16:16:35;4.20;;;2.63;;
6356;SDS011;3211;53.452;-2.264;2023-04-25T16:19:18;3.13;;;2.40;;
6356;SDS011;3211;53.452;-2.264;2023-04-25T16:22:01;5.07;;;3.10;;
6356;SDS011;3211;53.452;-2.264;2023-04-25T16:24:43;8.80;;;2.90;;
6356;SDS011;3211;53.452;-2.264;2023-04-25T16:27:25;4.80;;;3.00;;
6356;SDS011;3211;53.452;-2.264;2023-04-25T16:30:07;3.57;;;2.80;;
6356;SDS011;3211;53.452;-2.264;2023-04-25T16:32:50;5.80;;;2.77;;
6356;SDS011;3211;53.452;-2.264;2023-04-25T16:35:34;8.87;;;2.57;;